Ladle Cove, Canada
Current Conditions -  °F | °C
As of 12:00 AM on Wednesday 22 Oct 2014 (Local Time) from CYQX Reporting Station
Broken Clouds Broken Clouds  
Wind Chill: 36°   Ceiling: 3700
Heat Index: 43°   Visibility: 20mi
Dew Point: 36°   Wind: 13mph
Humidity: 76%   Direction: 280°W
Pressure: 30.25"   Gusts: NA
Location:  49.45°N, 54.05°W
Report Text: CYQX 220200Z 28011KT 20SM BKN037 06/02 A3025 RMK SC7 SLP250
Loading
Personal Weather Stations






























Interactive Weather Map
Tropical Storm Tracking
New forecast layout! Learn more

10-Day Weather Forecast

Advertisements
Track Severe Weather on mobile